createdAt,value
2019-05-05T00:01:26.360Z,59.30
2019-05-05T00:04:01.157Z,59.60
2019-05-05T00:06:31.432Z,60.70
2019-05-05T00:09:01.675Z,61.40
2019-05-05T00:11:35.314Z,62.60
2019-05-05T00:14:10.160Z,64.20
2019-05-05T00:16:54.646Z,65.10
2019-05-05T00:19:32.496Z,65.50
2019-05-05T00:21:57.431Z,66.60
2019-05-05T00:24:27.617Z,66.70
2019-05-05T00:26:57.880Z,66.60
2019-05-05T00:29:28.123Z,66.80
2019-05-05T00:31:58.319Z,67.10
2019-05-05T00:34:28.567Z,67.50
2019-05-05T00:36:58.769Z,67.00
2019-05-05T00:39:28.998Z,67.30
2019-05-05T00:41:59.186Z,67.50
2019-05-05T00:44:29.367Z,66.60
2019-05-05T00:47:07.106Z,66.70
2019-05-05T00:49:46.390Z,66.50
2019-05-05T00:52:11.737Z,65.90
2019-05-05T00:54:41.918Z,66.50
2019-05-05T00:57:12.136Z,66.60
2019-05-05T00:59:42.307Z,66.40
2019-05-05T01:02:20.545Z,66.20
2019-05-05T01:05:27.983Z,66.20
2019-05-05T01:07:59.413Z,66.50
2019-05-05T01:10:29.859Z,67.70
2019-05-05T01:13:00.432Z,68.30
2019-05-05T01:15:30.878Z,68.70
2019-05-05T01:18:02.299Z,68.90
2019-05-05T01:20:34.328Z,68.70
2019-05-05T01:23:04.790Z,68.70
2019-05-05T01:25:37.636Z,68.90
2019-05-05T01:28:07.999Z,68.50
2019-05-05T01:30:39.850Z,68.80
2019-05-05T01:33:14.631Z,68.20
2019-05-05T01:35:44.926Z,67.90
2019-05-05T01:38:19.842Z,68.50
2019-05-05T01:40:54.752Z,68.90
2019-05-05T01:43:25.384Z,69.00
2019-05-05T01:45:55.628Z,68.90
2019-05-05T01:48:26.403Z,69.20
2019-05-05T01:50:56.607Z,69.80
2019-05-05T01:53:26.810Z,69.10
2019-05-05T01:55:56.998Z,69.00
2019-05-05T01:58:27.200Z,68.50
2019-05-05T02:00:57.387Z,67.80
2019-05-05T02:03:28.231Z,67.40
2019-05-05T02:05:58.222Z,66.80
2019-05-05T02:08:28.426Z,66.40
2019-05-05T02:10:58.608Z,66.70
2019-05-05T02:13:28.797Z,66.70
2019-05-05T02:15:59.000Z,66.90
2019-05-05T02:18:29.209Z,67.00
2019-05-05T02:21:05.142Z,66.90
2019-05-05T02:23:36.095Z,67.10
2019-05-05T02:26:06.912Z,67.50
2019-05-05T02:28:38.751Z,67.70
2019-05-05T02:31:11.411Z,67.90
2019-05-05T02:33:41.901Z,68.50
2019-05-05T02:36:12.261Z,69.60
2019-05-05T02:38:42.528Z,69.70
2019-05-05T02:41:15.350Z,69.90
2019-05-05T02:43:45.065Z,69.50
2019-05-05T02:46:30.154Z,69.00
2019-05-05T02:49:00.804Z,68.70
2019-05-05T02:51:31.045Z,68.60
2019-05-05T02:54:04.269Z,68.20
2019-05-05T02:56:45.287Z,67.60
2019-05-05T02:59:17.140Z,67.50
2019-05-05T03:01:48.956Z,67.70
2019-05-05T03:04:19.171Z,67.20
2019-05-05T03:06:49.448Z,67.80
2019-05-05T03:09:19.636Z,68.20
2019-05-05T03:11:49.819Z,68.10
2019-05-05T03:14:20.095Z,68.40
2019-05-05T03:16:51.411Z,68.20
2019-05-05T03:19:23.553Z,68.80
2019-05-05T03:21:54.571Z,68.80
2019-05-05T03:24:24.936Z,69.60
2019-05-05T03:26:55.107Z,69.60
2019-05-05T03:29:25.317Z,69.50
2019-05-05T03:31:56.469Z,69.10
2019-05-05T03:34:27.059Z,69.50
2019-05-05T03:36:57.243Z,69.60
2019-05-05T03:39:29.157Z,69.70
2019-05-05T03:45:14.478Z,69.40
2019-05-05T03:47:45.027Z,69.50
2019-05-05T03:50:15.307Z,70.30
2019-05-05T03:52:45.489Z,70.30
2019-05-05T03:55:15.690Z,70.50
2019-05-05T03:57:45.868Z,71.20
2019-05-05T04:00:25.916Z,71.50
2019-05-05T04:03:00.782Z,71.80
2019-05-05T04:05:34.023Z,71.90
2019-05-05T04:08:04.704Z,72.00
2019-05-05T04:10:34.903Z,72.50
2019-05-05T04:13:06.351Z,71.10
2019-05-05T04:15:38.134Z,70.70
2019-05-05T04:18:10.018Z,70.90
2019-05-05T04:20:40.311Z,70.90
2019-05-05T04:23:10.474Z,71.00
2019-05-05T04:25:40.780Z,71.00
2019-05-05T04:28:13.651Z,70.90
2019-05-05T04:30:56.756Z,70.40
2019-05-05T04:33:26.969Z,69.70
2019-05-05T04:35:57.235Z,68.70
2019-05-05T04:38:27.412Z,68.60
2019-05-05T04:40:57.610Z,68.40
2019-05-05T04:43:28.977Z,67.00
2019-05-05T04:45:59.179Z,67.00
2019-05-05T04:48:31.021Z,66.80
2019-05-05T04:51:06.617Z,66.00
2019-05-05T04:53:41.191Z,65.00
2019-05-05T04:56:11.362Z,64.60
2019-05-05T04:58:41.571Z,64.50
2019-05-05T05:01:13.154Z,64.90
2019-05-05T05:03:51.809Z,66.70
2019-05-05T05:06:23.786Z,69.20
2019-05-05T05:08:53.987Z,70.90
2019-05-05T05:11:24.622Z,70.60
2019-05-05T05:13:55.236Z,70.20
2019-05-05T05:16:25.440Z,70.10
2019-05-05T05:18:55.691Z,70.00
2019-05-05T05:21:26.042Z,69.30
2019-05-05T05:24:14.758Z,68.50
2019-05-05T05:26:45.035Z,67.70
2019-05-05T05:29:15.266Z,66.60
2019-05-05T05:31:45.487Z,66.20
2019-05-05T05:34:15.684Z,65.40
2019-05-05T05:36:45.887Z,64.80
2019-05-05T05:42:08.179Z,63.80
2019-05-05T05:44:40.367Z,63.70
2019-05-05T05:47:28.727Z,63.50
2019-05-05T05:50:19.241Z,64.30
2019-05-05T05:52:49.998Z,64.70
2019-05-05T05:55:20.175Z,65.40
2019-05-05T05:57:50.407Z,65.50
2019-05-05T06:00:20.657Z,64.70
2019-05-05T06:02:50.916Z,65.20
2019-05-05T06:05:23.625Z,64.00
2019-05-05T06:07:54.414Z,64.20
2019-05-05T06:10:27.309Z,64.60
2019-05-05T06:12:57.059Z,65.00
2019-05-05T06:15:27.323Z,64.60
2019-05-05T06:17:57.708Z,64.10
2019-05-05T06:20:29.167Z,63.20
2019-05-05T06:22:59.593Z,62.60
2019-05-05T06:25:29.867Z,61.00
2019-05-05T06:28:00.178Z,59.00
2019-05-05T06:30:30.430Z,57.80
2019-05-05T06:33:00.733Z,58.00
2019-05-05T06:35:30.997Z,57.90
2019-05-05T06:38:01.699Z,58.10
2019-05-05T06:40:39.363Z,59.20
2019-05-05T06:43:17.267Z,58.80
2019-05-05T06:45:53.553Z,59.10
2019-05-05T06:48:23.892Z,59.60
2019-05-05T06:50:54.475Z,59.00
2019-05-05T06:53:43.644Z,59.70
2019-05-05T06:56:34.179Z,60.00
2019-05-05T06:59:24.385Z,62.40
2019-05-05T07:02:14.517Z,64.20
2019-05-05T07:05:04.120Z,66.40
2019-05-05T07:07:53.759Z,68.70
2019-05-05T07:14:46.655Z,68.40
2019-05-05T07:17:16.411Z,67.80
2019-05-05T07:19:46.925Z,65.80
2019-05-05T07:22:17.858Z,63.70
2019-05-05T07:24:48.006Z,63.00
2019-05-05T07:27:20.829Z,61.50
2019-05-05T07:29:51.033Z,59.10
2019-05-05T07:32:21.223Z,59.00
2019-05-05T07:35:04.082Z,57.70
2019-05-05T07:37:34.580Z,56.20
2019-05-05T07:40:07.898Z,56.80
2019-05-05T07:42:38.255Z,56.20
2019-05-05T07:45:20.260Z,58.60
2019-05-05T07:47:43.691Z,55.50
2019-05-05T07:50:26.435Z,53.90
2019-05-05T07:52:46.422Z,50.50
2019-05-05T07:55:16.612Z,46.30
2019-05-05T07:57:46.843Z,45.30
2019-05-05T08:00:17.212Z,46.20
2019-05-05T08:02:47.498Z,48.30
2019-05-05T08:05:17.697Z,51.50
2019-05-05T08:07:48.014Z,54.60
2019-05-05T08:10:19.384Z,56.50
2019-05-05T08:12:54.050Z,56.50
2019-05-05T08:15:24.594Z,58.20
2019-05-05T08:18:13.880Z,59.50
2019-05-05T08:20:45.869Z,62.20
2019-05-05T08:23:29.127Z,64.00
2019-05-05T08:26:05.569Z,64.40
2019-05-05T08:28:40.287Z,63.70
2019-05-05T08:31:14.354Z,66.00
2019-05-05T08:33:44.277Z,66.60
2019-05-05T08:36:14.921Z,65.30
2019-05-05T08:38:45.130Z,64.20
2019-05-05T08:41:15.305Z,63.00
2019-05-05T08:43:45.967Z,63.40
2019-05-05T08:46:15.972Z,63.60
2019-05-05T08:48:46.260Z,63.70
2019-05-05T08:51:16.442Z,58.80
2019-05-05T08:53:48.305Z,60.20
2019-05-05T08:56:18.611Z,59.20
2019-05-05T08:58:49.873Z,61.70
2019-05-05T09:01:20.274Z,57.00
2019-05-05T09:03:50.515Z,54.20
2019-05-05T09:06:20.784Z,52.80
2019-05-05T09:08:50.994Z,52.90
2019-05-05T09:11:21.215Z,51.90
2019-05-05T09:13:53.435Z,51.60
2019-05-05T09:16:24.213Z,51.00
2019-05-05T09:19:01.263Z,50.40
2019-05-05T09:21:31.543Z,48.50
2019-05-05T09:24:19.159Z,46.50
2019-05-05T09:26:54.395Z,48.90
2019-05-05T09:29:43.813Z,52.90
2019-05-05T09:32:14.055Z,55.90
2019-05-05T09:34:44.564Z,56.70
2019-05-05T09:37:14.839Z,58.60
2019-05-05T09:39:45.178Z,58.10
2019-05-05T09:42:15.448Z,58.10
2019-05-05T09:44:45.695Z,58.00
2019-05-05T09:47:15.947Z,56.50
2019-05-05T09:49:46.204Z,54.50
2019-05-05T09:52:16.410Z,54.00
2019-05-05T09:54:46.742Z,52.90
2019-05-05T09:57:17.965Z,52.80
2019-05-05T09:59:47.524Z,50.40
2019-05-05T10:02:17.620Z,50.30
2019-05-05T10:04:48.794Z,50.20
2019-05-05T10:07:19.322Z,45.00
2019-05-05T10:09:51.258Z,44.70
2019-05-05T10:12:23.106Z,44.60
2019-05-05T10:14:55.896Z,42.90
2019-05-05T10:17:26.174Z,42.30
2019-05-05T10:19:56.371Z,43.10
2019-05-05T10:22:26.583Z,40.60
2019-05-05T10:25:15.413Z,41.60
2019-05-05T10:27:47.772Z,40.80
2019-05-05T10:30:18.235Z,38.80
2019-05-05T10:32:48.459Z,37.60
2019-05-05T10:35:19.187Z,38.90
2019-05-05T10:37:51.124Z,40.60
2019-05-05T10:40:23.435Z,39.70
2019-05-05T10:42:54.052Z,41.00
2019-05-05T10:45:24.734Z,43.60
2019-05-05T10:47:56.070Z,45.00
2019-05-05T10:50:26.281Z,45.50
2019-05-05T10:52:56.502Z,46.70
2019-05-05T10:55:26.762Z,49.40
2019-05-05T10:57:56.997Z,46.80
2019-05-05T11:00:44.346Z,47.30
2019-05-05T11:03:15.117Z,47.20
2019-05-05T11:05:45.635Z,46.90
2019-05-05T11:08:15.955Z,46.90
2019-05-05T11:10:46.168Z,45.80
2019-05-05T11:13:17.952Z,44.90
2019-05-05T11:16:04.057Z,45.30
2019-05-05T11:18:34.679Z,45.20
2019-05-05T11:21:04.971Z,44.10
2019-05-05T11:23:35.663Z,44.70
2019-05-05T11:26:06.424Z,47.10
2019-05-05T11:28:36.637Z,47.10
2019-05-05T11:31:06.995Z,45.80
2019-05-05T11:33:43.583Z,47.30
2019-05-05T11:36:15.953Z,45.20
2019-05-05T11:38:46.190Z,45.30
2019-05-05T11:41:16.420Z,46.20
2019-05-05T11:44:00.412Z,47.00
2019-05-05T11:46:30.635Z,46.80
2019-05-05T11:49:00.926Z,47.60
2019-05-05T11:51:31.310Z,46.10
2019-05-05T11:54:01.613Z,45.50
2019-05-05T11:56:33.960Z,44.60
2019-05-05T11:59:04.651Z,44.40
2019-05-05T12:01:34.953Z,44.10
2019-05-05T12:04:08.744Z,41.70
2019-05-05T12:06:39.021Z,42.50
2019-05-05T12:09:13.873Z,43.30
2019-05-05T12:11:44.101Z,41.90
2019-05-05T12:14:16.011Z,40.50
2019-05-05T12:16:46.586Z,41.60
2019-05-05T12:19:17.112Z,40.40
2019-05-05T12:21:47.821Z,38.70
2019-05-05T12:24:20.871Z,37.80
2019-05-05T12:26:54.252Z,38.50
2019-05-05T12:29:25.396Z,36.20
2019-05-05T12:31:57.358Z,35.80
2019-05-05T12:34:28.734Z,37.40
2019-05-05T12:37:00.699Z,35.90
2019-05-05T12:39:33.617Z,37.40
2019-05-05T12:42:05.313Z,40.40
2019-05-05T12:44:54.600Z,41.70
2019-05-05T12:47:30.427Z,41.60
2019-05-05T12:50:01.000Z,39.50
2019-05-05T12:52:33.551Z,35.80
2019-05-05T12:55:05.637Z,34.90
2019-05-05T12:57:36.192Z,35.20
2019-05-05T13:00:07.716Z,35.20
2019-05-05T13:02:38.664Z,34.40
2019-05-05T13:05:09.638Z,35.10
2019-05-05T13:07:40.750Z,36.00
2019-05-05T13:10:13.777Z,35.50
2019-05-05T13:12:45.847Z,35.00
2019-05-05T13:15:17.740Z,35.00
2019-05-05T13:17:48.339Z,35.30
2019-05-05T13:20:37.176Z,36.60
2019-05-05T13:23:09.667Z,35.60
2019-05-05T13:25:58.542Z,35.80
2019-05-05T13:28:27.034Z,36.10
2019-05-05T13:30:57.600Z,36.80
2019-05-05T13:33:28.473Z,35.00
2019-05-05T13:35:59.272Z,35.80
2019-05-05T13:38:29.892Z,32.90
2019-05-05T13:41:00.861Z,31.90
2019-05-05T13:43:31.135Z,30.30
2019-05-05T13:46:09.559Z,32.00
2019-05-05T13:48:39.791Z,33.90
2019-05-05T13:51:15.648Z,31.80
2019-05-05T13:53:46.012Z,32.90
2019-05-05T13:56:16.190Z,31.70
2019-05-05T13:58:46.859Z,31.40
2019-05-05T14:01:35.459Z,31.00
2019-05-05T14:04:05.826Z,29.20
2019-05-05T14:06:36.090Z,30.30
2019-05-05T14:09:06.560Z,29.90
2019-05-05T14:11:38.330Z,29.90
2019-05-05T14:14:09.877Z,30.90
2019-05-05T14:16:58.547Z,32.20
2019-05-05T14:19:28.815Z,32.30
2019-05-05T14:21:59.009Z,32.90
2019-05-05T14:24:30.852Z,29.50
2019-05-05T14:27:01.384Z,28.70
2019-05-05T14:29:36.648Z,32.20
2019-05-05T14:32:08.500Z,33.40
2019-05-05T14:34:54.637Z,31.60
2019-05-05T14:37:34.064Z,30.50
2019-05-05T14:40:06.430Z,30.80
2019-05-05T14:42:36.693Z,33.20
2019-05-05T14:45:06.899Z,31.60
2019-05-05T14:47:37.086Z,32.10
2019-05-05T14:50:07.596Z,32.60
2019-05-05T14:52:38.944Z,33.40
2019-05-05T14:55:09.767Z,35.40
2019-05-05T14:57:39.951Z,37.60
2019-05-05T15:00:13.660Z,40.40
2019-05-05T15:03:03.645Z,41.80
2019-05-05T15:05:54.762Z,43.50
2019-05-05T15:08:35.747Z,42.00
2019-05-05T15:11:07.631Z,42.20
2019-05-05T15:13:37.887Z,42.10
2019-05-05T15:16:10.073Z,41.90
2019-05-05T15:18:40.275Z,42.50
2019-05-05T15:21:10.469Z,43.60
2019-05-05T15:23:40.754Z,43.70
2019-05-05T15:26:12.591Z,44.00
2019-05-05T15:28:45.226Z,44.90
2019-05-05T15:31:14.811Z,47.20
2019-05-05T15:33:45.054Z,45.70
2019-05-05T15:36:15.238Z,45.50
2019-05-05T15:38:45.473Z,46.50
2019-05-05T15:41:15.736Z,45.70
2019-05-05T15:43:45.980Z,45.80
2019-05-05T15:46:16.221Z,45.70
2019-05-05T15:48:46.471Z,45.10
2019-05-05T15:51:18.575Z,45.20
2019-05-05T15:53:48.783Z,45.00
2019-05-05T15:56:18.974Z,44.70
2019-05-05T15:58:49.186Z,44.30
2019-05-05T16:01:19.415Z,44.60
2019-05-05T16:03:49.614Z,44.60
2019-05-05T16:06:19.802Z,43.90
2019-05-05T16:08:53.871Z,43.70
2019-05-05T16:11:23.418Z,44.60
2019-05-05T16:13:54.496Z,44.30
2019-05-05T16:16:43.705Z,44.70
2019-05-05T16:19:26.380Z,44.50
2019-05-05T16:22:10.363Z,45.20
2019-05-05T16:24:44.490Z,45.20
2019-05-05T16:27:21.806Z,46.00
2019-05-05T16:29:46.023Z,43.80
2019-05-05T16:32:21.747Z,44.50
2019-05-05T16:34:48.315Z,43.80
2019-05-05T16:37:18.515Z,43.70
2019-05-05T16:39:48.697Z,42.60
2019-05-05T16:42:19.948Z,44.00
2019-05-05T16:44:50.129Z,42.50
2019-05-05T16:47:20.571Z,42.60
2019-05-05T16:49:50.773Z,43.10
2019-05-05T16:52:23.960Z,43.10
2019-05-05T16:55:04.375Z,42.80
2019-05-05T16:57:36.540Z,42.70
2019-05-05T17:00:06.207Z,43.20
2019-05-05T17:02:39.067Z,43.50
2019-05-05T17:05:10.706Z,44.80
2019-05-05T17:07:41.060Z,45.50
2019-05-05T17:10:11.314Z,46.20
2019-05-05T17:12:41.846Z,46.00
2019-05-05T17:15:14.642Z,45.70
2019-05-05T17:17:58.652Z,45.60
2019-05-05T17:20:33.696Z,46.30
2019-05-05T17:23:05.659Z,47.60
2019-05-05T17:25:35.843Z,48.50
2019-05-05T17:28:06.051Z,48.80
2019-05-05T17:30:36.241Z,49.60
2019-05-05T17:33:06.450Z,48.30
2019-05-05T17:35:36.683Z,48.00
2019-05-05T17:38:07.964Z,48.10
2019-05-05T17:40:43.363Z,48.90
2019-05-05T17:43:25.088Z,49.20
2019-05-05T17:46:06.946Z,48.70
2019-05-05T17:48:54.019Z,48.40
2019-05-05T17:51:26.197Z,48.60
2019-05-05T17:53:58.188Z,49.30
2019-05-05T17:56:28.378Z,49.20
2019-05-05T17:58:58.582Z,49.40
2019-05-05T18:01:28.759Z,49.00
2019-05-05T18:03:59.931Z,49.30
2019-05-05T18:06:37.620Z,49.40
2019-05-05T18:09:10.519Z,49.50
2019-05-05T18:11:45.416Z,49.60
2019-05-05T18:14:33.528Z,49.50
2019-05-05T18:17:10.320Z,49.60
2019-05-05T18:19:43.607Z,49.40
2019-05-05T18:22:14.224Z,49.40
2019-05-05T18:24:47.551Z,48.50
2019-05-05T18:27:17.843Z,48.80
2019-05-05T18:29:48.339Z,49.30
2019-05-05T18:32:23.484Z,49.20
2019-05-05T18:34:55.353Z,48.70
2019-05-05T18:37:25.682Z,49.00
2019-05-05T18:39:56.045Z,48.60
2019-05-05T18:42:26.346Z,49.70
2019-05-05T18:45:03.677Z,49.90
2019-05-05T18:47:35.736Z,49.50
2019-05-05T18:50:06.932Z,49.10
2019-05-05T18:52:37.194Z,49.30
2019-05-05T18:55:07.488Z,49.70
2019-05-05T18:57:37.776Z,49.80
2019-05-05T19:00:09.679Z,50.30
2019-05-05T19:02:44.298Z,50.70
2019-05-05T19:05:25.565Z,50.70
2019-05-05T19:08:01.184Z,51.30
2019-05-05T19:10:31.398Z,51.50
2019-05-05T19:13:01.714Z,51.60
2019-05-05T19:15:32.064Z,52.30
2019-05-05T19:18:04.351Z,52.30
2019-05-05T19:20:36.470Z,52.40
2019-05-05T19:23:06.718Z,52.80
2019-05-05T19:25:37.008Z,53.20
2019-05-05T19:28:07.263Z,53.20
2019-05-05T19:30:39.112Z,53.30
2019-05-05T19:33:09.342Z,53.30
2019-05-05T19:35:44.070Z,53.70
2019-05-05T19:38:15.560Z,53.70
2019-05-05T19:40:47.416Z,53.30
2019-05-05T19:43:17.680Z,53.70
2019-05-05T19:45:47.900Z,53.60
2019-05-05T19:48:18.087Z,54.00
2019-05-05T19:50:55.745Z,53.90
2019-05-05T19:53:26.772Z,54.00
2019-05-05T19:55:57.047Z,53.70
2019-05-05T19:58:27.241Z,53.80
2019-05-05T20:01:04.584Z,53.90
2019-05-05T20:03:35.273Z,53.80
2019-05-05T20:06:05.870Z,54.80
2019-05-05T20:08:41.829Z,54.20
2019-05-05T20:11:09.646Z,54.30
2019-05-05T20:13:39.826Z,53.90
2019-05-05T20:16:23.856Z,53.90
2019-05-05T20:18:54.677Z,54.00
2019-05-05T20:21:25.111Z,54.50
2019-05-05T20:23:58.270Z,54.80
2019-05-05T20:26:31.286Z,54.50
2019-05-05T20:29:13.629Z,54.60
2019-05-05T20:31:34.596Z,54.60
2019-05-05T20:34:13.536Z,54.30
2019-05-05T20:37:04.366Z,54.30
2019-05-05T20:39:34.483Z,54.50
2019-05-05T20:42:05.038Z,54.40
2019-05-05T20:44:35.383Z,54.00
2019-05-05T20:47:05.568Z,54.00
2019-05-05T20:49:35.907Z,53.90
2019-05-05T20:52:06.091Z,54.00
2019-05-05T20:54:36.295Z,53.90
2019-05-05T20:57:06.475Z,53.80
2019-05-05T20:59:36.674Z,54.00
2019-05-05T21:02:07.015Z,54.10
2019-05-05T21:04:37.225Z,53.80
2019-05-05T21:07:07.412Z,53.90
2019-05-05T21:09:37.646Z,53.80
2019-05-05T21:12:07.823Z,53.80
2019-05-05T21:14:39.001Z,53.70
2019-05-05T21:17:09.205Z,54.00
2019-05-05T21:19:39.483Z,54.20
2019-05-05T21:22:30.392Z,54.70
2019-05-05T21:25:00.659Z,54.50
2019-05-05T21:27:30.862Z,54.80
2019-05-05T21:30:03.886Z,55.40
2019-05-05T21:32:34.042Z,55.10
2019-05-05T21:35:06.213Z,55.10
2019-05-05T21:37:36.434Z,55.20
2019-05-05T21:40:07.283Z,55.30
2019-05-05T21:42:37.526Z,55.70
2019-05-05T21:45:07.763Z,55.80
2019-05-05T21:47:43.780Z,55.70
2019-05-05T21:50:27.583Z,56.00
2019-05-05T21:53:04.468Z,56.20
2019-05-05T21:55:44.537Z,56.70
2019-05-05T21:58:22.365Z,57.20
2019-05-05T22:00:54.622Z,57.60
2019-05-05T22:03:34.565Z,58.10
2019-05-05T22:06:04.959Z,58.50
2019-05-05T22:08:35.825Z,58.80
2019-05-05T22:11:05.996Z,58.90
2019-05-05T22:13:36.687Z,59.60
2019-05-05T22:16:07.062Z,59.80
2019-05-05T22:18:37.263Z,60.00
2019-05-05T22:24:19.251Z,59.60
2019-05-05T22:26:49.433Z,59.60
2019-05-05T22:29:19.750Z,59.20
2019-05-05T22:31:50.034Z,59.40
2019-05-05T22:34:40.951Z,59.20
2019-05-05T22:37:11.131Z,59.00
2019-05-05T22:39:41.335Z,59.20
2019-05-05T22:42:11.528Z,58.90
2019-05-05T22:44:41.787Z,59.00
2019-05-05T22:47:13.787Z,58.90
2019-05-05T22:49:44.335Z,58.70
2019-05-05T22:52:14.724Z,58.80
2019-05-05T22:54:44.931Z,58.70
2019-05-05T22:57:15.472Z,58.70
2019-05-05T22:59:58.324Z,59.00
2019-05-05T23:02:30.327Z,59.10
2019-05-05T23:05:04.081Z,59.20
2019-05-05T23:07:35.096Z,59.40
2019-05-05T23:10:06.883Z,59.50
2019-05-05T23:12:37.850Z,60.00
2019-05-05T23:15:09.706Z,60.00
2019-05-05T23:17:50.829Z,60.00
2019-05-05T23:20:51.122Z,60.50
2019-05-05T23:23:23.984Z,60.70
2019-05-05T23:25:58.379Z,61.00
2019-05-05T23:28:28.587Z,61.50
2019-05-05T23:30:58.754Z,61.80
2019-05-05T23:33:28.967Z,61.90
2019-05-05T23:35:59.212Z,61.80
2019-05-05T23:38:29.805Z,62.20
2019-05-05T23:41:00.055Z,62.10
2019-05-05T23:43:30.263Z,62.10
2019-05-05T23:46:00.446Z,62.20
2019-05-05T23:48:30.903Z,62.10
2019-05-05T23:51:01.083Z,62.00
2019-05-05T23:53:31.283Z,62.00
2019-05-05T23:56:03.856Z,62.60
2019-05-05T23:58:34.789Z,61.70
